Time;durP1;ratioP1;P1;durP2;ratioP2;P2;SDS_P1;SDS_P2;PMS_P1;PMS_P2;Temp;Humidity;BMP_temperature;BMP_pressure;BME280_temperature;BME280_humidity;BME280_pressure;Samples;Min_cycle;Max_cycle;Signal;HPM_P1;HPM_P2
2023/07/20 00:01:25;;;;;;;2.72;0.20;;;16.10;99.90;;;;;;5079095;28;20103;-78
2023/07/20 00:03:54;;;;;;;2.70;0.38;;;16.00;99.90;;;;;;5078951;28;20029;-79
2023/07/20 00:06:27;;;;;;;3.13;0.40;;;16.00;99.90;;;;;;5078252;28;20024;-78
2023/07/20 00:08:53;;;;;;;0.20;0.10;;;16.10;99.90;;;;;;5077997;28;20051;-78
2023/07/20 00:11:19;;;;;;;2.28;0.15;;;15.90;99.90;;;;;;5078565;28;20108;-78
2023/07/20 00:13:45;;;;;;;0.77;0.20;;;15.90;99.90;;;;;;5078814;28;20016;-78
2023/07/20 00:16:10;;;;;;;0.32;0.10;;;15.90;99.90;;;;;;5077436;28;20021;-78
2023/07/20 00:18:36;;;;;;;2.28;0.10;;;15.90;99.90;;;;;;5075631;28;20491;-77
2023/07/20 00:21:02;;;;;;;1.75;0.00;;;15.90;99.90;;;;;;5074690;28;20425;-77
2023/07/20 00:23:27;;;;;;;0.68;0.00;;;15.90;99.90;;;;;;5075139;28;20078;-76
2023/07/20 00:25:54;;;;;;;2.22;0.10;;;15.80;99.90;;;;;;5077838;28;20032;-78
2023/07/20 00:28:19;;;;;;;0.82;0.00;;;15.80;99.90;;;;;;5059620;28;20032;-76
2023/07/20 00:30:45;;;;;;;1.48;0.10;;;15.80;99.90;;;;;;5077634;28;20024;-78
2023/07/20 00:33:11;;;;;;;3.50;0.45;;;15.80;99.90;;;;;;5059533;28;20025;-78
2023/07/20 00:35:38;;;;;;;0.20;0.08;;;15.70;99.90;;;;;;5077146;28;20012;-78
2023/07/20 00:38:04;;;;;;;1.70;0.10;;;15.70;99.90;;;;;;5078607;28;20028;-78
2023/07/20 00:40:39;;;;;;;3.55;0.30;;;15.60;99.90;;;;;;5077943;28;20028;-78
2023/07/20 00:43:05;;;;;;;0.70;0.00;;;15.60;99.90;;;;;;5059752;28;20016;-78
2023/07/20 00:45:32;;;;;;;1.65;0.00;;;15.50;99.90;;;;;;5077116;28;20032;-76
2023/07/20 00:47:58;;;;;;;0.35;0.20;;;15.60;99.90;;;;;;5077873;28;20502;-78
2023/07/20 00:50:25;;;;;;;0.63;0.00;;;15.40;99.90;;;;;;5057827;28;20024;-77
2023/07/20 00:52:51;;;;;;;0.85;0.32;;;15.30;99.90;;;;;;5076365;28;20044;-77
2023/07/20 00:55:17;;;;;;;2.55;0.43;;;15.30;99.90;;;;;;5058550;28;20086;-78
2023/07/20 00:57:43;;;;;;;0.20;0.00;;;15.20;99.90;;;;;;5058252;28;20024;-78
2023/07/20 01:00:09;;;;;;;1.10;0.00;;;15.10;99.90;;;;;;5059144;28;20480;-77
2023/07/20 01:02:34;;;;;;;0.30;0.00;;;15.10;99.90;;;;;;5060950;28;20403;-77
2023/07/20 01:05:01;;;;;;;0.40;0.00;;;15.00;99.90;;;;;;5060289;28;20024;-79
2023/07/20 01:07:54;;;;;;;0.17;0.10;;;14.90;99.90;;;;;;5060265;28;20082;-79
2023/07/20 01:10:40;;;;;;;1.65;0.00;;;14.80;99.90;;;;;;5078847;28;20500;-79
2023/07/20 01:13:09;;;;;;;1.38;0.30;;;14.80;99.90;;;;;;5059866;28;20027;-79
2023/07/20 01:15:34;;;;;;;0.65;0.00;;;14.80;99.90;;;;;;5077141;28;20369;-77
2023/07/20 01:18:01;;;;;;;0.20;0.00;;;14.70;99.90;;;;;;5076144;28;20028;-78
2023/07/20 01:20:30;;;;;;;0.00;0.00;;;14.70;99.90;;;;;;5075600;28;20025;-78
2023/07/20 01:23:21;;;;;;;0.95;0.00;;;14.60;99.90;;;;;;5074931;28;20029;-77
2023/07/20 01:26:17;;;;;;;3.40;0.00;;;14.50;99.90;;;;;;5060599;28;20040;-79
2023/07/20 01:29:13;;;;;;;0.10;0.10;;;14.50;99.90;;;;;;5057202;28;20055;-78
2023/07/20 01:31:41;;;;;;;0.20;0.20;;;14.40;99.90;;;;;;5075307;28;20024;-78
2023/07/20 01:34:11;;;;;;;0.35;0.00;;;14.30;99.90;;;;;;5075082;28;20048;-78
2023/07/20 01:36:38;;;;;;;1.85;0.35;;;14.20;99.90;;;;;;5061571;28;20013;-78
2023/07/20 01:39:04;;;;;;;0.60;0.00;;;14.30;99.90;;;;;;5061355;28;20116;-78
2023/07/20 01:41:30;;;;;;;0.00;0.00;;;14.20;99.90;;;;;;5078566;28;20031;-78
2023/07/20 01:43:59;;;;;;;0.80;0.00;;;14.20;99.90;;;;;;5060258;28;20028;-78
2023/07/20 01:46:25;;;;;;;0.52;0.00;;;14.30;99.90;;;;;;5060412;28;20025;-78
2023/07/20 01:48:51;;;;;;;0.30;0.00;;;14.10;99.90;;;;;;5078117;28;20024;-78
2023/07/20 01:51:17;;;;;;;0.65;0.00;;;14.10;99.90;;;;;;5078416;28;20111;-78
2023/07/20 01:53:43;;;;;;;0.00;0.00;;;14.10;99.90;;;;;;5078527;28;20020;-78
2023/07/20 01:56:09;;;;;;;2.40;0.17;;;14.00;99.90;;;;;;5060540;28;20024;-78
2023/07/20 01:58:34;;;;;;;0.73;0.00;;;14.00;99.90;;;;;;5060377;28;20426;-78
2023/07/20 02:01:01;;;;;;;0.10;0.00;;;13.90;99.90;;;;;;5061012;28;20086;-78
2023/07/20 02:03:27;;;;;;;1.27;0.00;;;13.90;99.90;;;;;;5060301;28;20025;-78
2023/07/20 02:05:52;;;;;;;0.45;0.10;;;13.90;99.90;;;;;;5078374;28;20519;-78
2023/07/20 02:08:18;;;;;;;0.05;0.00;;;13.90;99.90;;;;;;5078187;28;20016;-78
2023/07/20 02:10:48;;;;;;;0.70;0.00;;;13.90;99.90;;;;;;5060073;28;20555;-78
2023/07/20 02:13:14;;;;;;;0.85;0.00;;;14.10;99.90;;;;;;5078985;28;20017;-79
2023/07/20 02:15:40;;;;;;;0.00;0.00;;;13.80;99.90;;;;;;5080050;28;20020;-78
2023/07/20 02:18:06;;;;;;;0.80;0.03;;;13.70;99.90;;;;;;5059292;28;20410;-77
2023/07/20 02:20:31;;;;;;;1.27;0.00;;;13.70;99.90;;;;;;5077333;28;20103;-79
2023/07/20 02:22:57;;;;;;;0.40;0.00;;;14.60;99.90;;;;;;5080871;28;20109;-78
2023/07/20 02:25:22;;;;;;;1.05;0.00;;;13.70;99.90;;;;;;5061165;28;20082;-79
2023/07/20 02:27:48;;;;;;;1.83;0.10;;;13.70;99.90;;;;;;5079946;28;20032;-78
2023/07/20 02:30:16;;;;;;;0.10;0.00;;;13.70;99.90;;;;;;5077428;28;20029;-78
2023/07/20 02:32:45;;;;;;;1.23;0.43;;;13.70;99.90;;;;;;5059735;28;20048;-78
2023/07/20 02:35:11;;;;;;;0.20;0.20;;;13.70;99.90;;;;;;5077788;28;20020;-78
2023/07/20 02:37:36;;;;;;;0.10;0.00;;;13.60;99.90;;;;;;5077179;28;20423;-78
2023/07/20 02:40:04;;;;;;;1.35;0.32;;;13.60;99.90;;;;;;5060898;28;20028;-78
2023/07/20 02:42:29;;;;;;;0.30;0.00;;;13.60;99.90;;;;;;5080040;28;20070;-78
2023/07/20 02:44:55;;;;;;;0.47;0.10;;;13.70;99.90;;;;;;5078655;28;20392;-78
2023/07/20 02:47:20;;;;;;;0.20;0.10;;;13.60;99.90;;;;;;5079503;28;20021;-78
2023/07/20 02:49:46;;;;;;;0.30;0.00;;;13.50;99.90;;;;;;5079376;28;20145;-78
2023/07/20 02:52:12;;;;;;;0.50;0.03;;;13.50;99.90;;;;;;5061312;28;20500;-79
2023/07/20 02:54:37;;;;;;;0.50;0.10;;;13.50;99.90;;;;;;5061425;28;20383;-79
2023/07/20 02:57:03;;;;;;;0.38;0.10;;;13.40;99.90;;;;;;5080212;28;20020;-79
2023/07/20 02:59:29;;;;;;;1.13;0.32;;;13.40;99.90;;;;;;5061726;28;20534;-78
2023/07/20 03:01:55;;;;;;;2.13;0.08;;;13.40;99.90;;;;;;5080419;28;20017;-79
2023/07/20 03:04:21;;;;;;;0.63;0.00;;;13.40;99.90;;;;;;5062195;28;20088;-79
2023/07/20 03:06:47;;;;;;;0.40;0.00;;;13.40;99.90;;;;;;5080254;28;20437;-78
2023/07/20 03:09:12;;;;;;;1.85;0.80;;;13.40;99.90;;;;;;5061605;28;20020;-78
2023/07/20 03:11:38;;;;;;;0.40;0.08;;;13.30;99.90;;;;;;5060957;28;20024;-77
2023/07/20 03:14:04;;;;;;;3.35;0.17;;;13.30;99.90;;;;;;5079246;28;20028;-79
2023/07/20 03:16:32;;;;;;;3.22;0.43;;;13.60;99.90;;;;;;5080215;28;20025;-78
2023/07/20 03:18:59;;;;;;;0.70;0.25;;;13.40;99.90;;;;;;5062575;28;20491;-79
2023/07/20 03:21:24;;;;;;;1.15;0.10;;;13.20;99.90;;;;;;5062688;28;20096;-78
2023/07/20 03:23:50;;;;;;;1.45;0.20;;;13.10;99.90;;;;;;5062955;28;20052;-79
2023/07/20 03:26:15;;;;;;;1.05;0.30;;;13.20;99.90;;;;;;5061582;28;20040;-79
2023/07/20 03:28:41;;;;;;;0.68;0.20;;;13.10;99.90;;;;;;5060942;28;20021;-79
2023/07/20 03:31:06;;;;;;;1.25;0.35;;;13.10;99.90;;;;;;5076776;28;20017;-79
2023/07/20 03:33:33;;;;;;;2.45;0.40;;;13.10;99.90;;;;;;5076968;28;20017;-79
2023/07/20 03:35:59;;;;;;;0.68;0.20;;;13.10;99.90;;;;;;5078176;28;20380;-79
2023/07/20 03:38:25;;;;;;;1.38;0.40;;;13.10;99.90;;;;;;5061270;28;20023;-78
2023/07/20 03:40:52;;;;;;;0.60;0.13;;;13.00;99.90;;;;;;5079526;28;20372;-79
2023/07/20 03:43:19;;;;;;;1.60;0.35;;;13.00;99.90;;;;;;5078582;28;20029;-79
2023/07/20 03:45:48;;;;;;;3.67;0.20;;;13.00;99.90;;;;;;5061176;28;20051;-79
2023/07/20 03:48:17;;;;;;;1.33;0.47;;;13.00;99.90;;;;;;5062596;28;20446;-79
2023/07/20 03:50:47;;;;;;;0.95;0.60;;;13.00;99.90;;;;;;5061334;28;20029;-78
2023/07/20 03:53:14;;;;;;;1.05;0.22;;;13.00;99.90;;;;;;5078316;28;20025;-78
2023/07/20 03:55:50;;;;;;;2.30;0.38;;;13.30;99.90;;;;;;5060536;28;20044;-79
2023/07/20 03:58:19;;;;;;;3.15;0.80;;;14.50;99.90;;;;;;5060249;28;20044;-79
2023/07/20 04:00:46;;;;;;;0.95;0.57;;;13.00;99.90;;;;;;5079248;28;20063;-78
2023/07/20 04:03:12;;;;;;;1.40;0.60;;;12.90;99.90;;;;;;5060772;28;20027;-78
2023/07/20 04:05:38;;;;;;;3.35;0.43;;;13.00;99.90;;;;;;5079113;28;20078;-78
2023/07/20 04:08:03;;;;;;;2.30;0.60;;;12.90;99.90;;;;;;5079430;28;20472;-79
2023/07/20 04:10:29;;;;;;;0.95;0.30;;;12.90;99.90;;;;;;5079059;28;20031;-79
2023/07/20 04:12:55;;;;;;;2.45;0.95;;;13.00;99.90;;;;;;5079529;28;20017;-79
2023/07/20 04:15:20;;;;;;;0.90;0.57;;;13.00;99.90;;;;;;5078886;28;20021;-79
2023/07/20 04:17:46;;;;;;;0.60;0.40;;;12.90;99.90;;;;;;5078815;28;20091;-78
2023/07/20 04:20:11;;;;;;;1.58;0.60;;;12.90;99.90;;;;;;5078620;28;20052;-78
2023/07/20 04:22:37;;;;;;;5.25;1.25;;;13.00;99.90;;;;;;5078182;28;20024;-78
2023/07/20 04:25:03;;;;;;;1.92;0.52;;;13.00;99.90;;;;;;5077637;28;20044;-77
2023/07/20 04:27:29;;;;;;;2.38;1.08;;;13.00;99.90;;;;;;5076624;28;20121;-77
2023/07/20 04:29:54;;;;;;;3.90;0.73;;;13.10;99.90;;;;;;5077990;28;20056;-79
2023/07/20 04:32:20;;;;;;;1.38;0.57;;;13.10;99.90;;;;;;5075983;28;20032;-79
2023/07/20 04:34:45;;;;;;;2.00;0.88;;;13.20;99.90;;;;;;5059568;28;20035;-78
2023/07/20 04:37:11;;;;;;;1.52;0.85;;;13.30;99.90;;;;;;5077741;28;20376;-76
2023/07/20 04:39:37;;;;;;;2.20;1.35;;;13.80;99.90;;;;;;5056671;28;20023;-78
2023/07/20 04:42:03;;;;;;;4.47;1.20;;;13.40;99.90;;;;;;5077593;28;20020;-78
2023/07/20 04:44:28;;;;;;;2.33;1.90;;;13.50;99.90;;;;;;5077766;28;20016;-78
2023/07/20 04:46:54;;;;;;;3.92;1.25;;;13.60;99.90;;;;;;5080122;28;20025;-79
2023/07/20 04:49:19;;;;;;;4.47;1.45;;;13.60;99.90;;;;;;5080551;28;20072;-80
2023/07/20 04:51:45;;;;;;;1.95;1.25;;;13.80;99.90;;;;;;5061803;28;20028;-79
2023/07/20 04:54:11;;;;;;;2.40;1.20;;;13.90;99.90;;;;;;5078471;28;20480;-78
2023/07/20 04:56:36;;;;;;;3.10;1.30;;;14.00;99.90;;;;;;5059532;28;20012;-78
2023/07/20 04:59:02;;;;;;;2.22;1.23;;;14.10;99.90;;;;;;5078269;28;20024;-78
2023/07/20 05:01:27;;;;;;;6.10;1.17;;;14.20;99.90;;;;;;5078702;28;20024;-78
2023/07/20 05:03:53;;;;;;;2.33;1.45;;;14.20;99.90;;;;;;5077967;28;20051;-78
2023/07/20 05:06:19;;;;;;;4.28;0.90;;;14.40;99.90;;;;;;5059518;28;20017;-79
2023/07/20 05:08:45;;;;;;;1.65;1.50;;;14.50;99.90;;;;;;5079182;28;20024;-78
2023/07/20 05:11:11;;;;;;;5.30;1.58;;;14.60;99.90;;;;;;5080959;28;20056;-79
2023/07/20 05:13:37;;;;;;;1.50;0.70;;;14.80;99.90;;;;;;5081044;28;20017;-78
2023/07/20 05:16:02;;;;;;;2.15;0.93;;;14.90;99.90;;;;;;5081135;28;20023;-79
2023/07/20 05:18:28;;;;;;;1.55;0.80;;;14.90;99.90;;;;;;5064343;28;20013;-78
2023/07/20 05:20:54;;;;;;;2.30;1.00;;;15.00;99.90;;;;;;5081500;28;20016;-78
2023/07/20 05:23:21;;;;;;;3.13;0.88;;;15.10;99.90;;;;;;5062587;28;20028;-78
2023/07/20 05:25:47;;;;;;;3.47;0.90;;;15.20;99.90;;;;;;5081120;28;20036;-79
2023/07/20 05:28:12;;;;;;;1.10;0.40;;;15.20;99.90;;;;;;5080798;28;20031;-79
2023/07/20 05:30:39;;;;;;;1.15;0.57;;;15.80;99.90;;;;;;5080852;28;20024;-78
2023/07/20 05:33:05;;;;;;;4.07;0.70;;;15.40;99.90;;;;;;5062852;28;20073;-79
2023/07/20 05:35:30;;;;;;;1.30;0.43;;;15.50;99.90;;;;;;5080477;28;20025;-74
2023/07/20 05:37:58;;;;;;;7.72;0.88;;;15.50;99.90;;;;;;5077135;28;20020;-74
2023/07/20 05:40:24;;;;;;;1.20;0.60;;;15.60;99.90;;;;;;5058584;28;20025;-74
2023/07/20 05:42:51;;;;;;;2.65;0.40;;;15.70;99.90;;;;;;5076543;28;20028;-74
2023/07/20 05:45:17;;;;;;;0.95;0.20;;;15.70;99.90;;;;;;5076370;28;20043;-75
2023/07/20 05:47:43;;;;;;;1.65;0.32;;;15.80;99.90;;;;;;5076465;28;20099;-74
2023/07/20 05:50:10;;;;;;;2.15;0.43;;;15.90;99.90;;;;;;5076846;28;20039;-74
2023/07/20 05:52:35;;;;;;;2.78;0.38;;;16.00;99.90;;;;;;5076432;28;20082;-74
2023/07/20 05:55:01;;;;;;;2.75;0.20;;;16.10;99.90;;;;;;5058953;28;20020;-74
2023/07/20 05:57:26;;;;;;;0.45;0.00;;;16.10;99.90;;;;;;5076178;28;20013;-74
2023/07/20 05:59:52;;;;;;;0.20;0.10;;;16.20;99.90;;;;;;5076239;28;20025;-74
2023/07/20 06:02:18;;;;;;;0.10;0.00;;;16.30;99.90;;;;;;5076705;28;20472;-74
2023/07/20 06:04:43;;;;;;;1.55;0.10;;;16.30;99.90;;;;;;5075973;28;20142;-74
2023/07/20 06:07:09;;;;;;;1.67;0.00;;;16.40;99.90;;;;;;5076202;28;20023;-74
2023/07/20 06:09:35;;;;;;;0.25;0.13;;;19.10;99.90;;;;;;5076106;28;20021;-74
2023/07/20 06:12:00;;;;;;;0.47;0.00;;;16.50;99.90;;;;;;5075890;28;20024;-74
2023/07/20 06:14:26;;;;;;;1.85;0.00;;;16.60;99.90;;;;;;5075821;28;20028;-76
2023/07/20 06:16:51;;;;;;;1.20;0.00;;;16.60;99.90;;;;;;5075963;28;20013;-76
2023/07/20 06:19:17;;;;;;;0.30;0.00;;;16.70;99.90;;;;;;5075841;28;20028;-76
2023/07/20 06:21:43;;;;;;;2.22;0.00;;;16.80;99.90;;;;;;5074930;28;20028;-76
2023/07/20 06:24:10;;;;;;;1.83;0.00;;;16.80;99.90;;;;;;5058028;28;20491;-75
2023/07/20 06:26:38;;;;;;;1.65;0.00;;;16.80;99.90;;;;;;5057704;28;20086;-76
2023/07/20 06:29:07;;;;;;;;;;;16.90;99.90;;;;;;5075998;28;20495;-75
2023/07/20 06:31:35;;;;;;;0.40;0.00;;;17.00;99.90;;;;;;5075476;28;19909;-76
2023/07/20 06:34:01;;;;;;;0.00;0.00;;;17.00;99.90;;;;;;5057558;28;20111;-76
2023/07/20 06:36:27;;;;;;;0.00;0.00;;;17.10;99.90;;;;;;5076046;28;20483;-76
2023/07/20 06:38:53;;;;;;;0.22;0.00;;;17.20;99.90;;;;;;5075484;28;20027;-77
2023/07/20 06:41:18;;;;;;;0.43;0.00;;;17.30;99.90;;;;;;5075490;28;20031;-77
2023/07/20 06:44:08;;;;;;;;;;;;;;;;;;;;;
2023/07/20 06:46:33;;;;;;;0.00;0.00;;;17.50;99.90;;;;;;5075317;28;20025;-76
2023/07/20 06:48:59;;;;;;;1.20;0.00;;;19.50;99.90;;;;;;5057228;28;20118;-76
2023/07/20 06:51:24;;;;;;;0.52;0.00;;;19.90;99.90;;;;;;5075114;28;20031;-76
2023/07/20 06:53:50;;;;;;;0.52;0.10;;;17.80;99.90;;;;;;5075129;28;20024;-76
2023/07/20 06:56:15;;;;;;;0.22;0.00;;;17.70;99.90;;;;;;5075210;28;20028;-75
2023/07/20 06:58:41;;;;;;;0.73;0.03;;;17.90;99.90;;;;;;5075152;28;20066;-76
2023/07/20 07:01:08;;;;;;;1.63;0.00;;;17.90;99.90;;;;;;5074798;28;20416;-76
2023/07/20 07:03:33;;;;;;;1.65;0.00;;;17.80;99.90;;;;;;5074781;28;20455;-75
2023/07/20 07:06:00;;;;;;;0.38;0.08;;;17.90;99.90;;;;;;5054988;28;20111;-76
2023/07/20 07:08:26;;;;;;;1.30;0.00;;;18.10;99.90;;;;;;5056674;28;20024;-75
2023/07/20 07:10:53;;;;;;;0.22;0.00;;;17.70;99.90;;;;;;5074510;28;20460;-76
2023/07/20 07:13:19;;;;;;;0.10;0.00;;;17.80;99.90;;;;;;5074630;28;20078;-75
2023/07/20 07:15:45;;;;;;;0.10;0.00;;;17.90;99.90;;;;;;5074544;28;20025;-75
2023/07/20 07:18:11;;;;;;;0.00;0.00;;;18.00;99.90;;;;;;5074604;28;20089;-74
2023/07/20 07:20:37;;;;;;;0.10;0.00;;;18.10;99.90;;;;;;5074511;28;20108;-76
2023/07/20 07:23:02;;;;;;;0.00;0.00;;;18.20;99.90;;;;;;5056097;28;20039;-75
2023/07/20 07:25:28;;;;;;;0.25;0.00;;;18.40;99.90;;;;;;5074092;28;20032;-76
2023/07/20 07:27:55;;;;;;;0.00;0.00;;;18.80;99.90;;;;;;5056393;28;20423;-76
2023/07/20 07:30:21;;;;;;;3.92;0.10;;;18.50;99.90;;;;;;5074379;28;20119;-75
2023/07/20 07:32:46;;;;;;;0.00;0.00;;;18.60;99.90;;;;;;5074412;28;20098;-76
2023/07/20 07:35:12;;;;;;;0.80;0.00;;;18.60;99.90;;;;;;5056184;28;20441;-76
2023/07/20 07:37:38;;;;;;;1.20;0.00;;;18.50;99.90;;;;;;5074270;28;20024;-76
2023/07/20 07:40:05;;;;;;;0.10;0.00;;;18.80;99.90;;;;;;5074280;28;20563;-76
2023/07/20 07:42:31;;;;;;;0.00;0.00;;;18.90;99.90;;;;;;5074438;28;20035;-76
2023/07/20 07:44:57;;;;;;;2.75;0.00;;;19.00;99.90;;;;;;5074088;28;20103;-76
2023/07/20 07:47:22;;;;;;;0.00;0.00;;;19.00;99.90;;;;;;5074222;28;20028;-76
2023/07/20 07:49:48;;;;;;;0.10;0.00;;;19.00;99.90;;;;;;5074058;28;20103;-75
2023/07/20 07:52:14;;;;;;;0.20;0.00;;;19.10;99.90;;;;;;5074286;28;20060;-75
2023/07/20 07:54:39;;;;;;;1.13;0.00;;;19.00;99.90;;;;;;5073710;28;20013;-75
2023/07/20 07:57:05;;;;;;;0.75;0.00;;;19.30;99.90;;;;;;5073855;28;20074;-74
2023/07/20 07:59:36;;;;;;;0.00;0.00;;;19.00;99.90;;;;;;5055860;28;20125;-74
2023/07/20 08:02:02;;;;;;;0.03;0.00;;;18.90;99.90;;;;;;5073529;28;20060;-76
2023/07/20 08:04:27;;;;;;;0.00;0.00;;;19.00;99.90;;;;;;5072287;28;20396;-75
2023/07/20 08:06:53;;;;;;;0.00;0.00;;;19.10;99.90;;;;;;5071806;28;20024;-75
2023/07/20 08:09:19;;;;;;;0.13;0.00;;;19.20;99.90;;;;;;5075013;28;20029;-77
2023/07/20 08:11:44;;;;;;;0.90;0.10;;;19.50;99.90;;;;;;5057588;28;20115;-78
2023/07/20 08:14:10;;;;;;;0.00;0.00;;;19.40;99.90;;;;;;5074599;28;20035;-78
2023/07/20 08:16:35;;;;;;;0.00;0.00;;;19.70;99.90;;;;;;5076201;28;20047;-78
2023/07/20 08:19:02;;;;;;;2.28;0.10;;;19.80;99.90;;;;;;5076519;28;20017;-78
2023/07/20 08:21:28;;;;;;;0.52;0.00;;;19.90;99.90;;;;;;5058570;28;20012;-79
2023/07/20 08:23:53;;;;;;;0.08;0.00;;;19.90;99.90;;;;;;5077740;28;20028;-79
2023/07/20 08:26:22;;;;;;;0.00;0.00;;;19.80;99.90;;;;;;5058422;28;20396;-78
2023/07/20 08:28:48;;;;;;;;;;;20.00;99.90;;;;;;5058770;28;20020;-79
2023/07/20 08:31:14;;;;;;;0.57;0.00;;;20.30;99.90;;;;;;5076285;28;20283;-78
2023/07/20 08:33:39;;;;;;;1.20;0.00;;;20.20;99.90;;;;;;5077374;28;20522;-79
2023/07/20 08:36:05;;;;;;;0.47;0.05;;;20.40;99.90;;;;;;5077851;28;20024;-80
2023/07/20 08:38:31;;;;;;;0.10;0.00;;;20.50;99.90;;;;;;5077865;28;20047;-80
2023/07/20 08:40:59;;;;;;;0.10;0.00;;;20.50;99.90;;;;;;5059538;28;20035;-80
2023/07/20 08:43:25;;;;;;;0.45;0.00;;;20.60;99.90;;;;;;5057443;28;20021;-78
2023/07/20 08:45:52;;;;;;;0.10;0.00;;;20.80;99.90;;;;;;5075189;28;20112;-77
2023/07/20 08:48:19;;;;;;;0.00;0.00;;;20.30;99.90;;;;;;5057452;28;20046;-78
2023/07/20 08:50:47;;;;;;;0.00;0.00;;;20.40;99.90;;;;;;5076502;28;20078;-79
2023/07/20 08:53:14;;;;;;;0.20;0.00;;;20.50;99.90;;;;;;5075615;28;20013;-77
2023/07/20 08:55:41;;;;;;;1.10;0.00;;;20.70;99.00;;;;;;5074517;28;20021;-76
2023/07/20 08:58:11;;;;;;;0.25;0.00;;;20.50;98.70;;;;;;5056183;28;20128;-77
2023/07/20 09:00:37;;;;;;;0.30;0.00;;;20.60;99.20;;;;;;5056091;28;20029;-77
2023/07/20 09:03:03;;;;;;;0.00;0.00;;;20.70;99.90;;;;;;5074875;28;20104;-78
2023/07/20 09:05:29;;;;;;;0.30;0.00;;;20.90;99.90;;;;;;5074483;28;20029;-77
2023/07/20 09:07:55;;;;;;;0.43;0.00;;;21.10;99.90;;;;;;5074262;28;20146;-75
2023/07/20 09:10:22;;;;;;;0.68;0.00;;;20.90;97.90;;;;;;5057881;28;20094;-77
2023/07/20 09:12:48;;;;;;;1.05;0.00;;;20.80;97.00;;;;;;5057206;28;20392;-78
2023/07/20 09:15:14;;;;;;;0.00;0.00;;;20.70;96.60;;;;;;5074031;28;20021;-77
2023/07/20 09:17:45;;;;;;;0.43;0.00;;;20.40;96.00;;;;;;5055918;28;20023;-78
2023/07/20 09:20:10;;;;;;;2.20;0.00;;;20.50;97.40;;;;;;5073817;28;20501;-77
2023/07/20 09:22:39;;;;;;;0.25;0.00;;;20.50;95.80;;;;;;5056234;28;20024;-77
2023/07/20 09:25:16;;;;;;;0.10;0.00;;;20.50;95.30;;;;;;5074838;28;20028;-78
2023/07/20 09:27:44;;;;;;;0.00;0.00;;;20.60;94.90;;;;;;5058162;28;20031;-78
2023/07/20 09:30:13;;;;;;;0.20;0.00;;;20.80;96.10;;;;;;5074324;28;20056;-78
2023/07/20 09:32:44;;;;;;;0.00;0.00;;;20.90;93.00;;;;;;5074404;28;20376;-77
2023/07/20 09:35:20;;;;;;;0.20;0.00;;;21.00;93.80;;;;;;5056775;28;20070;-79
2023/07/20 09:37:58;;;;;;;0.00;0.00;;;21.30;93.70;;;;;;5074403;28;20020;-78
2023/07/20 09:40:25;;;;;;;1.35;0.13;;;21.40;92.80;;;;;;5073245;28;20020;-76
2023/07/20 09:42:59;;;;;;;1.67;0.00;;;21.50;92.40;;;;;;5055423;28;20020;-76
2023/07/20 09:45:29;;;;;;;0.00;0.00;;;21.70;94.20;;;;;;5066136;28;20031;-78
2023/07/20 09:48:03;;;;;;;0.30;0.00;;;21.80;92.10;;;;;;5072942;28;20024;-78
2023/07/20 09:50:29;;;;;;;0.30;0.00;;;22.10;90.90;;;;;;5055062;28;20533;-77
2023/07/20 09:52:55;;;;;;;0.52;0.00;;;22.20;90.10;;;;;;5073108;28;20100;-77
2023/07/20 09:55:21;;;;;;;0.00;0.00;;;22.00;91.50;;;;;;5055547;28;20123;-77
2023/07/20 09:57:47;;;;;;;0.28;0.00;;;21.90;90.70;;;;;;5077253;28;20099;-76
2023/07/20 10:00:14;;;;;;;0.00;0.00;;;21.90;90.80;;;;;;5058745;28;20031;-78
2023/07/20 10:02:44;;;;;;;0.40;0.00;;;21.80;91.40;;;;;;5060478;28;20059;-78
2023/07/20 10:05:13;;;;;;;0.00;0.00;;;22.10;93.30;;;;;;5059121;28;20035;-77
2023/07/20 10:07:52;;;;;;;0.00;0.00;;;22.30;92.20;;;;;;5061164;28;20029;-79
2023/07/20 10:10:19;;;;;;;1.42;0.00;;;22.40;92.20;;;;;;5060413;28;20036;-77
2023/07/20 10:12:47;;;;;;;0.00;0.00;;;22.80;92.00;;;;;;5077290;28;20361;-76
2023/07/20 10:15:45;;;;;;;;;;;23.10;91.10;;;;;;5078715;28;20017;-79
2023/07/20 10:18:21;;;;;;;0.00;0.00;;;23.40;92.70;;;;;;5017240;28;19904;-77
2023/07/20 10:20:49;;;;;;;0.00;0.00;;;23.90;90.30;;;;;;5077810;28;20103;-76
2023/07/20 10:23:14;;;;;;;0.10;0.10;;;23.80;86.60;;;;;;5078032;28;20067;-78
2023/07/20 10:25:42;;;;;;;0.00;0.00;;;23.60;90.80;;;;;;5079364;28;20036;-79
2023/07/20 10:28:10;;;;;;;0.32;0.00;;;23.40;90.90;;;;;;5061396;28;20047;-76
2023/07/20 10:30:36;;;;;;;1.08;0.00;;;23.30;91.00;;;;;;5060193;28;20017;-77
2023/07/20 10:33:04;;;;;;;0.75;0.00;;;23.20;91.80;;;;;;5058995;28;20013;-79
2023/07/20 10:35:30;;;;;;;0.10;0.00;;;23.20;92.20;;;;;;5059479;28;20021;-78
2023/07/20 10:38:01;;;;;;;0.10;0.00;;;23.10;91.40;;;;;;5059613;28;20025;-81
2023/07/20 10:40:27;;;;;;;0.98;0.00;;;23.00;90.60;;;;;;5061143;28;20029;-80
2023/07/20 10:43:22;;;;;;;0.00;0.00;;;23.00;91.40;;;;;;5079507;28;20027;-78
2023/07/20 10:45:50;;;;;;;0.10;0.00;;;23.10;90.40;;;;;;5053285;28;20032;-79
2023/07/20 10:48:22;;;;;;;0.00;0.00;;;23.30;90.40;;;;;;5078680;28;20043;-77
2023/07/20 10:51:14;;;;;;;0.00;0.00;;;23.80;90.60;;;;;;5059967;28;20032;-76
2023/07/20 10:53:39;;;;;;;0.10;0.00;;;23.70;87.20;;;;;;5059189;28;20104;-79
2023/07/20 10:56:08;;;;;;;0.00;0.00;;;23.70;88.60;;;;;;5078175;28;20048;-77
2023/07/20 10:58:34;;;;;;;0.00;0.00;;;23.90;90.10;;;;;;5076544;28;20066;-77
2023/07/20 11:01:05;;;;;;;1.27;0.00;;;23.60;86.70;;;;;;5058423;28;20451;-77
2023/07/20 11:03:33;;;;;;;0.40;0.00;;;23.40;88.90;;;;;;5058254;28;20063;-77
2023/07/20 11:05:59;;;;;;;0.80;0.00;;;23.40;90.80;;;;;;5057745;28;20511;-76
2023/07/20 11:08:41;;;;;;;0.00;0.00;;;23.00;89.50;;;;;;5075562;28;20025;-77
2023/07/20 11:11:33;;;;;;;1.10;0.00;;;23.10;91.20;;;;;;5058484;28;20442;-79
2023/07/20 11:14:00;;;;;;;0.15;0.00;;;23.20;90.80;;;;;;5076104;28;20080;-78
2023/07/20 11:16:46;;;;;;;0.20;0.00;;;23.00;89.80;;;;;;5075995;28;20480;-77
2023/07/20 11:19:18;;;;;;;0.57;0.00;;;22.80;90.10;;;;;;5075803;28;20029;-77
2023/07/20 11:21:46;;;;;;;0.00;0.00;;;23.00;90.80;;;;;;5076486;28;20028;-78
2023/07/20 11:24:13;;;;;;;0.65;0.00;;;23.40;90.50;;;;;;5076885;28;20480;-76
2023/07/20 11:26:54;;;;;;;1.13;0.00;;;23.90;90.80;;;;;;5075932;28;20476;-77
2023/07/20 11:29:22;;;;;;;0.00;0.00;;;24.20;90.80;;;;;;5077343;28;20082;-78
2023/07/20 11:31:49;;;;;;;0.80;0.00;;;24.70;89.10;;;;;;5057770;28;20111;-79
2023/07/20 11:34:16;;;;;;;0.13;0.00;;;25.00;89.30;;;;;;5075995;28;20428;-76
2023/07/20 11:36:47;;;;;;;0.20;0.10;;;25.10;83.30;;;;;;5076360;28;20059;-77
2023/07/20 11:39:15;;;;;;;0.22;0.00;;;24.80;86.00;;;;;;5076089;28;20750;-77
2023/07/20 11:41:47;;;;;;;0.00;0.00;;;24.70;82.20;;;;;;5057660;28;20020;-79
2023/07/20 11:44:14;;;;;;;0.32;0.00;;;24.90;86.80;;;;;;5057557;28;20035;-77
2023/07/20 11:46:42;;;;;;;0.00;0.00;;;25.20;87.70;;;;;;5075469;28;20073;-77
2023/07/20 11:49:07;;;;;;;1.08;0.00;;;25.60;84.00;;;;;;5076478;28;20025;-77
2023/07/20 11:51:35;;;;;;;0.00;0.00;;;25.80;81.70;;;;;;5075770;28;20495;-77
2023/07/20 11:54:02;;;;;;;0.20;0.00;;;25.40;79.50;;;;;;5075313;28;20025;-77
2023/07/20 11:56:28;;;;;;;0.00;0.00;;;25.50;83.40;;;;;;5075704;28;20301;-77
2023/07/20 11:58:56;;;;;;;0.00;0.00;;;25.80;84.90;;;;;;5076114;28;20023;-77
2023/07/20 12:01:23;;;;;;;0.35;0.00;;;26.40;83.40;;;;;;5057567;28;20024;-76
2023/07/20 12:03:49;;;;;;;0.00;0.00;;;26.50;82.40;;;;;;5076744;28;20503;-78
2023/07/20 12:06:15;;;;;;;0.00;0.00;;;26.70;81.50;;;;;;5057645;28;20512;-77
2023/07/20 12:08:44;;;;;;;0.00;0.00;;;26.80;75.70;;;;;;5076355;28;20056;-78
2023/07/20 12:11:10;;;;;;;0.45;0.00;;;26.90;77.30;;;;;;5059161;28;20059;-78
2023/07/20 12:13:37;;;;;;;1.38;0.00;;;27.10;83.10;;;;;;5059155;28;20484;-77
2023/07/20 12:16:10;;;;;;;0.00;0.00;;;27.30;77.60;;;;;;5075369;28;20499;-76
2023/07/20 12:18:36;;;;;;;0.43;0.00;;;27.10;79.10;;;;;;5075252;28;20135;-76
2023/07/20 12:21:02;;;;;;;0.93;0.00;;;26.60;77.00;;;;;;5056667;28;20185;-77
2023/07/20 12:23:38;;;;;;;0.00;0.00;;;26.30;80.40;;;;;;5056879;28;20033;-78
2023/07/20 12:26:10;;;;;;;0.73;0.00;;;26.00;81.20;;;;;;5058638;28;20480;-78
2023/07/20 12:28:40;;;;;;;0.00;0.00;;;25.50;81.90;;;;;;5075162;28;20032;-78
2023/07/20 12:31:06;;;;;;;1.45;0.00;;;24.90;81.80;;;;;;5075076;28;20032;-78
2023/07/20 12:33:31;;;;;;;0.30;0.00;;;24.50;84.80;;;;;;5075117;28;20020;-79
2023/07/20 12:35:58;;;;;;;0.43;0.10;;;24.40;87.40;;;;;;5076403;28;20048;-79
2023/07/20 12:38:25;;;;;;;0.50;0.00;;;24.20;86.30;;;;;;5057158;28;20009;-77
2023/07/20 12:40:50;;;;;;;0.10;0.00;;;24.00;87.60;;;;;;5056627;28;20495;-78
2023/07/20 12:43:16;;;;;;;0.20;0.00;;;23.90;86.10;;;;;;5074938;28;20031;-77
2023/07/20 12:45:43;;;;;;;0.00;0.00;;;23.90;88.80;;;;;;5076254;28;20020;-78
2023/07/20 12:48:08;;;;;;;0.10;0.00;;;23.90;90.10;;;;;;5075598;28;20031;-78
2023/07/20 12:50:34;;;;;;;1.60;0.00;;;23.90;88.80;;;;;;5056446;28;20032;-77